sensor_id;sensor_type;location;lat;lon;timestamp;P1;durP1;ratioP1;P2;durP2;ratioP2
36185;SDS011;22228;53.222;7.446;2022-09-09T00:00:54;19.07;;;16.90;;
36185;SDS011;22228;53.222;7.446;2022-09-09T00:03:23;25.70;;;17.40;;
36185;SDS011;22228;53.222;7.446;2022-09-09T00:05:48;21.47;;;17.80;;
36185;SDS011;22228;53.222;7.446;2022-09-09T00:08:18;21.13;;;17.60;;
36185;SDS011;22228;53.222;7.446;2022-09-09T00:10:41;19.43;;;17.27;;
36185;SDS011;22228;53.222;7.446;2022-09-09T00:13:05;20.40;;;17.07;;
36185;SDS011;22228;53.222;7.446;2022-09-09T00:15:37;21.23;;;18.07;;
36185;SDS011;22228;53.222;7.446;2022-09-09T00:18:03;21.10;;;18.43;;
36185;SDS011;22228;53.222;7.446;2022-09-09T00:20:36;19.07;;;17.07;;
36185;SDS011;22228;53.222;7.446;2022-09-09T00:23:08;20.23;;;18.17;;
36185;SDS011;22228;53.222;7.446;2022-09-09T00:25:34;22.43;;;18.20;;
36185;SDS011;22228;53.222;7.446;2022-09-09T00:28:00;21.87;;;19.50;;
36185;SDS011;22228;53.222;7.446;2022-09-09T00:30:22;21.23;;;18.47;;
36185;SDS011;22228;53.222;7.446;2022-09-09T00:32:44;20.63;;;18.43;;
36185;SDS011;22228;53.222;7.446;2022-09-09T00:35:11;20.33;;;17.63;;
36185;SDS011;22228;53.222;7.446;2022-09-09T00:37:39;23.60;;;19.67;;
36185;SDS011;22228;53.222;7.446;2022-09-09T00:40:01;24.53;;;19.37;;
36185;SDS011;22228;53.222;7.446;2022-09-09T00:42:34;22.67;;;19.33;;
36185;SDS011;22228;53.222;7.446;2022-09-09T00:45:02;24.40;;;20.77;;
36185;SDS011;22228;53.222;7.446;2022-09-09T00:47:39;24.40;;;20.33;;
36185;SDS011;22228;53.222;7.446;2022-09-09T00:50:05;24.83;;;20.10;;
36185;SDS011;22228;53.222;7.446;2022-09-09T00:52:36;24.13;;;19.03;;
36185;SDS011;22228;53.222;7.446;2022-09-09T00:55:07;21.63;;;19.03;;
36185;SDS011;22228;53.222;7.446;2022-09-09T00:57:32;20.93;;;18.13;;
36185;SDS011;22228;53.222;7.446;2022-09-09T01:00:14;21.53;;;19.27;;
36185;SDS011;22228;53.222;7.446;2022-09-09T01:02:42;24.57;;;20.20;;
36185;SDS011;22228;53.222;7.446;2022-09-09T01:05:15;25.67;;;20.07;;
36185;SDS011;22228;53.222;7.446;2022-09-09T01:07:44;20.63;;;18.30;;
36185;SDS011;22228;53.222;7.446;2022-09-09T01:10:10;20.50;;;18.07;;
36185;SDS011;22228;53.222;7.446;2022-09-09T01:12:44;25.40;;;19.23;;
36185;SDS011;22228;53.222;7.446;2022-09-09T01:15:12;19.77;;;17.67;;
36185;SDS011;22228;53.222;7.446;2022-09-09T01:17:46;22.10;;;18.43;;
36185;SDS011;22228;53.222;7.446;2022-09-09T01:20:13;18.87;;;16.97;;
36185;SDS011;22228;53.222;7.446;2022-09-09T01:22:47;17.77;;;15.97;;
36185;SDS011;22228;53.222;7.446;2022-09-09T01:25:30;22.47;;;18.13;;
36185;SDS011;22228;53.222;7.446;2022-09-09T01:28:19;22.07;;;18.47;;
36185;SDS011;22228;53.222;7.446;2022-09-09T01:30:47;21.27;;;17.87;;
36185;SDS011;22228;53.222;7.446;2022-09-09T01:33:13;24.43;;;19.40;;
36185;SDS011;22228;53.222;7.446;2022-09-09T01:35:37;28.17;;;20.23;;
36185;SDS011;22228;53.222;7.446;2022-09-09T01:38:04;24.40;;;19.93;;
36185;SDS011;22228;53.222;7.446;2022-09-09T01:40:26;23.17;;;18.13;;
36185;SDS011;22228;53.222;7.446;2022-09-09T01:42:48;28.30;;;20.03;;
36185;SDS011;22228;53.222;7.446;2022-09-09T01:45:10;24.57;;;18.87;;
36185;SDS011;22228;53.222;7.446;2022-09-09T01:47:31;21.93;;;18.40;;
36185;SDS011;22228;53.222;7.446;2022-09-09T01:49:59;22.40;;;19.93;;
36185;SDS011;22228;53.222;7.446;2022-09-09T01:52:22;24.37;;;20.17;;
36185;SDS011;22228;53.222;7.446;2022-09-09T01:54:42;23.93;;;19.87;;
36185;SDS011;22228;53.222;7.446;2022-09-09T01:57:09;23.07;;;18.37;;
36185;SDS011;22228;53.222;7.446;2022-09-09T01:59:45;23.43;;;19.43;;
36185;SDS011;22228;53.222;7.446;2022-09-09T02:02:16;20.40;;;18.23;;
36185;SDS011;22228;53.222;7.446;2022-09-09T02:04:54;23.07;;;19.33;;
36185;SDS011;22228;53.222;7.446;2022-09-09T02:07:25;30.73;;;21.13;;
36185;SDS011;22228;53.222;7.446;2022-09-09T02:10:01;26.23;;;20.87;;
36185;SDS011;22228;53.222;7.446;2022-09-09T02:12:39;30.20;;;20.53;;
36185;SDS011;22228;53.222;7.446;2022-09-09T02:15:05;27.37;;;18.83;;
36185;SDS011;22228;53.222;7.446;2022-09-09T02:17:40;23.43;;;19.27;;
36185;SDS011;22228;53.222;7.446;2022-09-09T02:20:06;25.77;;;20.03;;
36185;SDS011;22228;53.222;7.446;2022-09-09T02:22:35;24.70;;;18.10;;
36185;SDS011;22228;53.222;7.446;2022-09-09T02:25:00;23.60;;;18.63;;
36185;SDS011;22228;53.222;7.446;2022-09-09T02:27:22;25.10;;;19.83;;
36185;SDS011;22228;53.222;7.446;2022-09-09T02:29:44;20.60;;;18.27;;
36185;SDS011;22228;53.222;7.446;2022-09-09T02:32:07;28.03;;;20.33;;
36185;SDS011;22228;53.222;7.446;2022-09-09T02:34:33;23.00;;;18.90;;
36185;SDS011;22228;53.222;7.446;2022-09-09T02:36:58;25.90;;;19.40;;
36185;SDS011;22228;53.222;7.446;2022-09-09T02:39:20;27.80;;;20.33;;
36185;SDS011;22228;53.222;7.446;2022-09-09T02:41:43;22.43;;;18.37;;
36185;SDS011;22228;53.222;7.446;2022-09-09T02:44:05;23.33;;;18.70;;
36185;SDS011;22228;53.222;7.446;2022-09-09T02:46:34;26.77;;;20.23;;
36185;SDS011;22228;53.222;7.446;2022-09-09T02:49:02;21.50;;;18.50;;
36185;SDS011;22228;53.222;7.446;2022-09-09T02:51:37;23.60;;;19.17;;
36185;SDS011;22228;53.222;7.446;2022-09-09T02:54:09;21.07;;;16.97;;
36185;SDS011;22228;53.222;7.446;2022-09-09T02:56:38;21.33;;;18.47;;
36185;SDS011;22228;53.222;7.446;2022-09-09T02:59:02;19.97;;;17.70;;
36185;SDS011;22228;53.222;7.446;2022-09-09T03:01:25;19.43;;;16.47;;
36185;SDS011;22228;53.222;7.446;2022-09-09T03:03:45;25.23;;;17.57;;
36185;SDS011;22228;53.222;7.446;2022-09-09T03:06:09;18.63;;;16.70;;
36185;SDS011;22228;53.222;7.446;2022-09-09T03:08:32;22.50;;;16.60;;
36185;SDS011;22228;53.222;7.446;2022-09-09T03:10:54;20.83;;;16.57;;
36185;SDS011;22228;53.222;7.446;2022-09-09T03:13:16;20.70;;;16.40;;
36185;SDS011;22228;53.222;7.446;2022-09-09T03:15:38;20.93;;;16.33;;
36185;SDS011;22228;53.222;7.446;2022-09-09T03:18:01;20.33;;;16.27;;
36185;SDS011;22228;53.222;7.446;2022-09-09T03:20:22;19.83;;;15.07;;
36185;SDS011;22228;53.222;7.446;2022-09-09T03:22:44;21.97;;;16.97;;
36185;SDS011;22228;53.222;7.446;2022-09-09T03:25:08;20.77;;;16.33;;
36185;SDS011;22228;53.222;7.446;2022-09-09T03:27:29;19.50;;;15.13;;
36185;SDS011;22228;53.222;7.446;2022-09-09T03:29:51;17.77;;;15.37;;
36185;SDS011;22228;53.222;7.446;2022-09-09T03:32:15;16.47;;;14.40;;
36185;SDS011;22228;53.222;7.446;2022-09-09T03:34:36;20.50;;;15.80;;
36185;SDS011;22228;53.222;7.446;2022-09-09T03:36:59;20.17;;;16.03;;
36185;SDS011;22228;53.222;7.446;2022-09-09T03:39:21;18.43;;;14.33;;
36185;SDS011;22228;53.222;7.446;2022-09-09T03:41:43;20.40;;;15.13;;
36185;SDS011;22228;53.222;7.446;2022-09-09T03:44:07;17.33;;;14.70;;
36185;SDS011;22228;53.222;7.446;2022-09-09T03:46:31;16.53;;;13.80;;
36185;SDS011;22228;53.222;7.446;2022-09-09T03:48:52;20.33;;;14.87;;
36185;SDS011;22228;53.222;7.446;2022-09-09T03:51:13;16.20;;;14.27;;
36185;SDS011;22228;53.222;7.446;2022-09-09T03:53:34;18.50;;;15.27;;
36185;SDS011;22228;53.222;7.446;2022-09-09T03:55:56;18.13;;;14.87;;
36185;SDS011;22228;53.222;7.446;2022-09-09T03:58:20;18.73;;;15.13;;
36185;SDS011;22228;53.222;7.446;2022-09-09T04:00:43;17.87;;;14.30;;
36185;SDS011;22228;53.222;7.446;2022-09-09T04:03:04;20.77;;;14.60;;
36185;SDS011;22228;53.222;7.446;2022-09-09T04:05:24;18.67;;;14.33;;
36185;SDS011;22228;53.222;7.446;2022-09-09T04:07:45;19.07;;;14.37;;
36185;SDS011;22228;53.222;7.446;2022-09-09T04:10:07;18.20;;;14.03;;
36185;SDS011;22228;53.222;7.446;2022-09-09T04:12:30;17.83;;;13.87;;
36185;SDS011;22228;53.222;7.446;2022-09-09T04:14:53;15.93;;;14.20;;
36185;SDS011;22228;53.222;7.446;2022-09-09T04:17:13;19.67;;;14.87;;
36185;SDS011;22228;53.222;7.446;2022-09-09T04:19:34;19.70;;;14.63;;
36185;SDS011;22228;53.222;7.446;2022-09-09T04:21:55;17.50;;;14.13;;
36185;SDS011;22228;53.222;7.446;2022-09-09T04:24:15;17.20;;;14.83;;
36185;SDS011;22228;53.222;7.446;2022-09-09T04:26:35;17.97;;;14.23;;
36185;SDS011;22228;53.222;7.446;2022-09-09T04:28:56;17.73;;;14.50;;
36185;SDS011;22228;53.222;7.446;2022-09-09T04:31:19;17.20;;;12.97;;
36185;SDS011;22228;53.222;7.446;2022-09-09T04:33:44;19.20;;;13.80;;
36185;SDS011;22228;53.222;7.446;2022-09-09T04:36:06;13.97;;;12.57;;
36185;SDS011;22228;53.222;7.446;2022-09-09T04:38:27;15.73;;;14.03;;
36185;SDS011;22228;53.222;7.446;2022-09-09T04:40:48;16.33;;;13.47;;
36185;SDS011;22228;53.222;7.446;2022-09-09T04:43:12;19.23;;;13.90;;
36185;SDS011;22228;53.222;7.446;2022-09-09T04:45:35;16.97;;;14.43;;
36185;SDS011;22228;53.222;7.446;2022-09-09T04:47:57;17.27;;;13.80;;
36185;SDS011;22228;53.222;7.446;2022-09-09T04:50:18;15.10;;;12.23;;
36185;SDS011;22228;53.222;7.446;2022-09-09T04:52:40;15.90;;;13.43;;
36185;SDS011;22228;53.222;7.446;2022-09-09T04:55:01;19.00;;;12.80;;
36185;SDS011;22228;53.222;7.446;2022-09-09T04:57:22;16.10;;;12.30;;
36185;SDS011;22228;53.222;7.446;2022-09-09T04:59:43;15.17;;;11.97;;
36185;SDS011;22228;53.222;7.446;2022-09-09T05:02:04;18.47;;;12.27;;
36185;SDS011;22228;53.222;7.446;2022-09-09T05:04:26;15.03;;;12.30;;
36185;SDS011;22228;53.222;7.446;2022-09-09T05:06:47;14.30;;;12.13;;
36185;SDS011;22228;53.222;7.446;2022-09-09T05:09:07;16.80;;;12.53;;
36185;SDS011;22228;53.222;7.446;2022-09-09T05:11:28;18.73;;;13.27;;
36185;SDS011;22228;53.222;7.446;2022-09-09T05:13:55;15.93;;;12.30;;
36185;SDS011;22228;53.222;7.446;2022-09-09T05:16:16;14.17;;;12.67;;
36185;SDS011;22228;53.222;7.446;2022-09-09T05:18:37;13.30;;;10.87;;
36185;SDS011;22228;53.222;7.446;2022-09-09T05:21:00;13.87;;;12.37;;
36185;SDS011;22228;53.222;7.446;2022-09-09T05:23:21;13.80;;;11.90;;
36185;SDS011;22228;53.222;7.446;2022-09-09T05:25:43;15.67;;;12.40;;
36185;SDS011;22228;53.222;7.446;2022-09-09T05:28:06;11.23;;;10.13;;
36185;SDS011;22228;53.222;7.446;2022-09-09T05:30:27;10.87;;;9.37;;
36185;SDS011;22228;53.222;7.446;2022-09-09T05:32:48;11.43;;;9.20;;
36185;SDS011;22228;53.222;7.446;2022-09-09T05:35:10;9.87;;;8.87;;
36185;SDS011;22228;53.222;7.446;2022-09-09T05:37:33;8.53;;;7.67;;
36185;SDS011;22228;53.222;7.446;2022-09-09T05:39:53;9.23;;;8.30;;
36185;SDS011;22228;53.222;7.446;2022-09-09T05:42:14;10.80;;;7.87;;
36185;SDS011;22228;53.222;7.446;2022-09-09T05:44:34;8.63;;;7.70;;
36185;SDS011;22228;53.222;7.446;2022-09-09T05:46:55;8.73;;;7.30;;
36185;SDS011;22228;53.222;7.446;2022-09-09T05:49:16;8.57;;;7.73;;
36185;SDS011;22228;53.222;7.446;2022-09-09T05:51:37;8.57;;;7.77;;
36185;SDS011;22228;53.222;7.446;2022-09-09T05:54:03;8.63;;;7.80;;
36185;SDS011;22228;53.222;7.446;2022-09-09T05:56:28;10.50;;;9.33;;
36185;SDS011;22228;53.222;7.446;2022-09-09T05:58:51;9.30;;;8.40;;
36185;SDS011;22228;53.222;7.446;2022-09-09T06:01:13;11.87;;;9.30;;
36185;SDS011;22228;53.222;7.446;2022-09-09T06:03:35;12.30;;;9.30;;
36185;SDS011;22228;53.222;7.446;2022-09-09T06:05:59;10.77;;;9.17;;
36185;SDS011;22228;53.222;7.446;2022-09-09T06:08:20;11.67;;;9.93;;
36185;SDS011;22228;53.222;7.446;2022-09-09T06:10:42;13.07;;;9.23;;
36185;SDS011;22228;53.222;7.446;2022-09-09T06:13:03;11.93;;;9.03;;
36185;SDS011;22228;53.222;7.446;2022-09-09T06:15:23;11.40;;;9.07;;
36185;SDS011;22228;53.222;7.446;2022-09-09T06:17:44;10.83;;;9.57;;
36185;SDS011;22228;53.222;7.446;2022-09-09T06:20:06;11.60;;;9.23;;
36185;SDS011;22228;53.222;7.446;2022-09-09T06:22:27;11.90;;;9.80;;
36185;SDS011;22228;53.222;7.446;2022-09-09T06:24:49;11.73;;;9.57;;
36185;SDS011;22228;53.222;7.446;2022-09-09T06:27:11;12.87;;;10.10;;
36185;SDS011;22228;53.222;7.446;2022-09-09T06:29:32;11.67;;;10.03;;
36185;SDS011;22228;53.222;7.446;2022-09-09T06:31:54;10.57;;;9.43;;
36185;SDS011;22228;53.222;7.446;2022-09-09T06:34:17;12.43;;;10.07;;
36185;SDS011;22228;53.222;7.446;2022-09-09T06:36:41;10.70;;;9.60;;
36185;SDS011;22228;53.222;7.446;2022-09-09T06:39:03;10.87;;;9.23;;
36185;SDS011;22228;53.222;7.446;2022-09-09T06:41:26;9.63;;;8.60;;
36185;SDS011;22228;53.222;7.446;2022-09-09T06:43:49;13.47;;;8.77;;
36185;SDS011;22228;53.222;7.446;2022-09-09T06:46:10;8.80;;;7.93;;
36185;SDS011;22228;53.222;7.446;2022-09-09T06:48:31;12.00;;;8.10;;
36185;SDS011;22228;53.222;7.446;2022-09-09T06:50:59;10.63;;;8.13;;
36185;SDS011;22228;53.222;7.446;2022-09-09T06:53:21;8.93;;;7.77;;
36185;SDS011;22228;53.222;7.446;2022-09-09T06:55:42;8.33;;;7.37;;
36185;SDS011;22228;53.222;7.446;2022-09-09T06:58:07;8.17;;;7.40;;
36185;SDS011;22228;53.222;7.446;2022-09-09T07:00:29;8.73;;;7.93;;
36185;SDS011;22228;53.222;7.446;2022-09-09T07:02:50;9.30;;;7.10;;
36185;SDS011;22228;53.222;7.446;2022-09-09T07:07:33;10.80;;;8.33;;
36185;SDS011;22228;53.222;7.446;2022-09-09T07:09:54;8.83;;;7.87;;
36185;SDS011;22228;53.222;7.446;2022-09-09T07:12:16;8.60;;;7.80;;
36185;SDS011;22228;53.222;7.446;2022-09-09T07:14:45;8.10;;;6.80;;
36185;SDS011;22228;53.222;7.446;2022-09-09T07:17:07;7.83;;;7.03;;
36185;SDS011;22228;53.222;7.446;2022-09-09T07:19:30;10.33;;;7.73;;
36185;SDS011;22228;53.222;7.446;2022-09-09T07:21:51;9.03;;;8.13;;
36185;SDS011;22228;53.222;7.446;2022-09-09T07:24:14;7.93;;;7.10;;
36185;SDS011;22228;53.222;7.446;2022-09-09T07:26:36;7.93;;;7.23;;
36185;SDS011;22228;53.222;7.446;2022-09-09T07:28:57;8.50;;;7.67;;
36185;SDS011;22228;53.222;7.446;2022-09-09T07:31:18;9.50;;;8.43;;
36185;SDS011;22228;53.222;7.446;2022-09-09T07:33:45;10.50;;;9.30;;
36185;SDS011;22228;53.222;7.446;2022-09-09T07:36:07;9.40;;;8.47;;
36185;SDS011;22228;53.222;7.446;2022-09-09T07:38:31;9.37;;;8.50;;
36185;SDS011;22228;53.222;7.446;2022-09-09T07:40:51;10.33;;;9.23;;
36185;SDS011;22228;53.222;7.446;2022-09-09T07:43:11;11.30;;;10.20;;
36185;SDS011;22228;53.222;7.446;2022-09-09T07:45:32;11.40;;;10.33;;
36185;SDS011;22228;53.222;7.446;2022-09-09T07:47:54;11.17;;;10.17;;
36185;SDS011;22228;53.222;7.446;2022-09-09T07:50:17;12.07;;;10.77;;
36185;SDS011;22228;53.222;7.446;2022-09-09T07:52:37;12.27;;;11.17;;
36185;SDS011;22228;53.222;7.446;2022-09-09T07:55:00;12.97;;;11.67;;
36185;SDS011;22228;53.222;7.446;2022-09-09T07:57:21;11.53;;;10.43;;
36185;SDS011;22228;53.222;7.446;2022-09-09T07:59:43;10.83;;;9.93;;
36185;SDS011;22228;53.222;7.446;2022-09-09T08:02:05;17.87;;;16.27;;
36185;SDS011;22228;53.222;7.446;2022-09-09T08:04:28;11.40;;;10.30;;
36185;SDS011;22228;53.222;7.446;2022-09-09T08:06:50;11.27;;;10.07;;
36185;SDS011;22228;53.222;7.446;2022-09-09T08:09:13;10.83;;;9.87;;
36185;SDS011;22228;53.222;7.446;2022-09-09T08:11:35;10.47;;;9.50;;
36185;SDS011;22228;53.222;7.446;2022-09-09T08:13:56;9.27;;;8.47;;
36185;SDS011;22228;53.222;7.446;2022-09-09T08:16:19;9.27;;;8.37;;
36185;SDS011;22228;53.222;7.446;2022-09-09T08:18:41;8.67;;;7.83;;
36185;SDS011;22228;53.222;7.446;2022-09-09T08:21:07;9.20;;;8.30;;
36185;SDS011;22228;53.222;7.446;2022-09-09T08:23:31;8.33;;;7.73;;
36185;SDS011;22228;53.222;7.446;2022-09-09T08:25:52;7.93;;;7.30;;
36185;SDS011;22228;53.222;7.446;2022-09-09T08:28:12;6.83;;;6.33;;
36185;SDS011;22228;53.222;7.446;2022-09-09T08:30:33;7.83;;;5.83;;
36185;SDS011;22228;53.222;7.446;2022-09-09T08:32:53;5.83;;;5.33;;
36185;SDS011;22228;53.222;7.446;2022-09-09T08:35:15;6.43;;;5.50;;
36185;SDS011;22228;53.222;7.446;2022-09-09T08:37:37;6.23;;;5.63;;
36185;SDS011;22228;53.222;7.446;2022-09-09T08:39:59;6.30;;;5.10;;
36185;SDS011;22228;53.222;7.446;2022-09-09T08:42:25;6.07;;;5.43;;
36185;SDS011;22228;53.222;7.446;2022-09-09T08:45:00;5.90;;;5.40;;
36185;SDS011;22228;53.222;7.446;2022-09-09T08:47:34;6.83;;;5.03;;
36185;SDS011;22228;53.222;7.446;2022-09-09T08:50:11;4.97;;;4.57;;
36185;SDS011;22228;53.222;7.446;2022-09-09T08:52:39;6.90;;;5.50;;
36185;SDS011;22228;53.222;7.446;2022-09-09T08:55:15;5.83;;;5.23;;
36185;SDS011;22228;53.222;7.446;2022-09-09T08:57:46;5.43;;;4.93;;
36185;SDS011;22228;53.222;7.446;2022-09-09T09:00:09;8.37;;;7.67;;
36185;SDS011;22228;53.222;7.446;2022-09-09T09:02:31;7.03;;;5.30;;
36185;SDS011;22228;53.222;7.446;2022-09-09T09:05:00;8.27;;;6.30;;
36185;SDS011;22228;53.222;7.446;2022-09-09T09:07:32;6.17;;;5.57;;
36185;SDS011;22228;53.222;7.446;2022-09-09T09:10:04;6.90;;;6.30;;
36185;SDS011;22228;53.222;7.446;2022-09-09T09:12:38;5.53;;;5.03;;
36185;SDS011;22228;53.222;7.446;2022-09-09T09:15:02;5.93;;;5.50;;
36185;SDS011;22228;53.222;7.446;2022-09-09T09:17:35;6.37;;;5.60;;
36185;SDS011;22228;53.222;7.446;2022-09-09T09:19:58;5.13;;;4.63;;
36185;SDS011;22228;53.222;7.446;2022-09-09T09:22:20;6.07;;;5.57;;
36185;SDS011;22228;53.222;7.446;2022-09-09T09:24:50;6.60;;;5.83;;
36185;SDS011;22228;53.222;7.446;2022-09-09T09:27:16;7.07;;;5.90;;
36185;SDS011;22228;53.222;7.446;2022-09-09T09:29:52;6.70;;;6.20;;
36185;SDS011;22228;53.222;7.446;2022-09-09T09:32:18;6.10;;;5.60;;
36185;SDS011;22228;53.222;7.446;2022-09-09T09:34:41;5.87;;;4.50;;
36185;SDS011;22228;53.222;7.446;2022-09-09T09:37:02;5.30;;;4.67;;
36185;SDS011;22228;53.222;7.446;2022-09-09T09:39:38;5.10;;;4.60;;
36185;SDS011;22228;53.222;7.446;2022-09-09T09:41:59;6.50;;;4.10;;
36185;SDS011;22228;53.222;7.446;2022-09-09T09:44:31;4.60;;;4.13;;
36185;SDS011;22228;53.222;7.446;2022-09-09T09:47:07;7.43;;;5.10;;
36185;SDS011;22228;53.222;7.446;2022-09-09T09:49:29;7.67;;;5.93;;
36185;SDS011;22228;53.222;7.446;2022-09-09T09:51:50;7.67;;;6.00;;
36185;SDS011;22228;53.222;7.446;2022-09-09T09:54:15;6.37;;;5.10;;
36185;SDS011;22228;53.222;7.446;2022-09-09T09:56:51;4.90;;;4.43;;
36185;SDS011;22228;53.222;7.446;2022-09-09T09:59:19;4.30;;;3.90;;
36185;SDS011;22228;53.222;7.446;2022-09-09T10:01:40;7.80;;;6.60;;
36185;SDS011;22228;53.222;7.446;2022-09-09T10:04:14;7.40;;;6.70;;
36185;SDS011;22228;53.222;7.446;2022-09-09T10:06:38;4.33;;;3.93;;
36185;SDS011;22228;53.222;7.446;2022-09-09T10:08:59;4.07;;;3.60;;
36185;SDS011;22228;53.222;7.446;2022-09-09T10:11:30;5.73;;;3.40;;
36185;SDS011;22228;53.222;7.446;2022-09-09T10:14:04;2.97;;;2.60;;
36185;SDS011;22228;53.222;7.446;2022-09-09T10:16:37;5.53;;;2.63;;
36185;SDS011;22228;53.222;7.446;2022-09-09T10:19:09;2.87;;;2.63;;
36185;SDS011;22228;53.222;7.446;2022-09-09T10:21:54;4.57;;;3.57;;
36185;SDS011;22228;53.222;7.446;2022-09-09T10:24:25;6.07;;;3.47;;
36185;SDS011;22228;53.222;7.446;2022-09-09T10:27:01;4.33;;;3.93;;
36185;SDS011;22228;53.222;7.446;2022-09-09T10:29:33;6.83;;;3.17;;
36185;SDS011;22228;53.222;7.446;2022-09-09T10:32:08;4.77;;;3.47;;
36185;SDS011;22228;53.222;7.446;2022-09-09T10:34:45;3.20;;;2.90;;
36185;SDS011;22228;53.222;7.446;2022-09-09T10:37:18;4.50;;;3.20;;
36185;SDS011;22228;53.222;7.446;2022-09-09T10:39:46;4.20;;;2.97;;
36185;SDS011;22228;53.222;7.446;2022-09-09T10:42:08;5.83;;;2.53;;
36185;SDS011;22228;53.222;7.446;2022-09-09T10:44:44;6.50;;;2.10;;
36185;SDS011;22228;53.222;7.446;2022-09-09T10:47:24;3.17;;;1.63;;
36185;SDS011;22228;53.222;7.446;2022-09-09T10:50:12;5.57;;;1.83;;
36185;SDS011;22228;53.222;7.446;2022-09-09T10:52:48;5.73;;;1.70;;
36185;SDS011;22228;53.222;7.446;2022-09-09T10:55:18;6.90;;;1.67;;
36185;SDS011;22228;53.222;7.446;2022-09-09T10:57:40;4.03;;;1.70;;
36185;SDS011;22228;53.222;7.446;2022-09-09T11:00:04;3.20;;;1.10;;
36185;SDS011;22228;53.222;7.446;2022-09-09T11:02:27;8.30;;;1.87;;
36185;SDS011;22228;53.222;7.446;2022-09-09T11:04:49;5.23;;;1.40;;
36185;SDS011;22228;53.222;7.446;2022-09-09T11:07:16;6.13;;;1.73;;
36185;SDS011;22228;53.222;7.446;2022-09-09T11:09:47;4.30;;;1.20;;
36185;SDS011;22228;53.222;7.446;2022-09-09T11:12:15;3.63;;;1.00;;
36185;SDS011;22228;53.222;7.446;2022-09-09T11:14:39;4.53;;;1.50;;
36185;SDS011;22228;53.222;7.446;2022-09-09T11:17:04;3.53;;;1.20;;
36185;SDS011;22228;53.222;7.446;2022-09-09T11:19:30;5.37;;;1.27;;
36185;SDS011;22228;53.222;7.446;2022-09-09T11:21:54;3.47;;;1.47;;
36185;SDS011;22228;53.222;7.446;2022-09-09T11:24:18;5.47;;;1.40;;
36185;SDS011;22228;53.222;7.446;2022-09-09T11:26:45;4.57;;;1.30;;
36185;SDS011;22228;53.222;7.446;2022-09-09T11:29:16;7.80;;;1.70;;
36185;SDS011;22228;53.222;7.446;2022-09-09T11:31:59;3.90;;;1.07;;
36185;SDS011;22228;53.222;7.446;2022-09-09T11:34:33;3.27;;;1.10;;
36185;SDS011;22228;53.222;7.446;2022-09-09T11:37:07;4.37;;;1.40;;
36185;SDS011;22228;53.222;7.446;2022-09-09T11:39:39;9.67;;;1.50;;
36185;SDS011;22228;53.222;7.446;2022-09-09T11:42:17;4.43;;;1.43;;
36185;SDS011;22228;53.222;7.446;2022-09-09T11:44:40;4.87;;;1.43;;
36185;SDS011;22228;53.222;7.446;2022-09-09T11:47:01;3.13;;;1.30;;
36185;SDS011;22228;53.222;7.446;2022-09-09T11:49:25;6.30;;;1.50;;
36185;SDS011;22228;53.222;7.446;2022-09-09T11:51:48;7.07;;;1.73;;
36185;SDS011;22228;53.222;7.446;2022-09-09T11:54:25;5.73;;;1.33;;
36185;SDS011;22228;53.222;7.446;2022-09-09T11:56:48;4.70;;;1.50;;
36185;SDS011;22228;53.222;7.446;2022-09-09T11:59:19;5.17;;;1.60;;
36185;SDS011;22228;53.222;7.446;2022-09-09T12:01:41;6.20;;;1.87;;
36185;SDS011;22228;53.222;7.446;2022-09-09T12:04:14;4.30;;;1.53;;
36185;SDS011;22228;53.222;7.446;2022-09-09T12:06:44;4.90;;;1.40;;
36185;SDS011;22228;53.222;7.446;2022-09-09T12:09:07;5.17;;;1.57;;
36185;SDS011;22228;53.222;7.446;2022-09-09T12:11:35;4.03;;;1.50;;
36185;SDS011;22228;53.222;7.446;2022-09-09T12:13:56;4.27;;;1.50;;
36185;SDS011;22228;53.222;7.446;2022-09-09T12:16:28;3.80;;;1.07;;
36185;SDS011;22228;53.222;7.446;2022-09-09T12:18:51;4.03;;;1.10;;
36185;SDS011;22228;53.222;7.446;2022-09-09T12:21:25;3.53;;;1.40;;
36185;SDS011;22228;53.222;7.446;2022-09-09T12:23:55;4.73;;;2.17;;
36185;SDS011;22228;53.222;7.446;2022-09-09T12:26:22;3.47;;;1.10;;
36185;SDS011;22228;53.222;7.446;2022-09-09T12:31:34;2.50;;;1.00;;
36185;SDS011;22228;53.222;7.446;2022-09-09T12:34:04;2.27;;;1.10;;
36185;SDS011;22228;53.222;7.446;2022-09-09T12:36:30;4.13;;;1.27;;
36185;SDS011;22228;53.222;7.446;2022-09-09T12:38:53;5.53;;;1.50;;
36185;SDS011;22228;53.222;7.446;2022-09-09T12:41:20;4.67;;;1.07;;
36185;SDS011;22228;53.222;7.446;2022-09-09T12:43:43;6.57;;;1.27;;
36185;SDS011;22228;53.222;7.446;2022-09-09T12:46:03;4.83;;;1.27;;
36185;SDS011;22228;53.222;7.446;2022-09-09T12:48:32;1.37;;;0.80;;
36185;SDS011;22228;53.222;7.446;2022-09-09T12:50:56;3.70;;;0.90;;
36185;SDS011;22228;53.222;7.446;2022-09-09T12:53:18;5.07;;;1.13;;
36185;SDS011;22228;53.222;7.446;2022-09-09T12:55:48;2.80;;;1.20;;
36185;SDS011;22228;53.222;7.446;2022-09-09T12:58:11;2.87;;;1.30;;
36185;SDS011;22228;53.222;7.446;2022-09-09T13:00:36;4.33;;;1.17;;
36185;SDS011;22228;53.222;7.446;2022-09-09T13:02:57;6.80;;;1.53;;
36185;SDS011;22228;53.222;7.446;2022-09-09T13:05:22;6.07;;;1.27;;
36185;SDS011;22228;53.222;7.446;2022-09-09T13:07:44;5.83;;;1.50;;
36185;SDS011;22228;53.222;7.446;2022-09-09T13:10:05;7.93;;;1.97;;
36185;SDS011;22228;53.222;7.446;2022-09-09T13:12:30;5.73;;;2.13;;
36185;SDS011;22228;53.222;7.446;2022-09-09T13:14:51;3.90;;;1.70;;
36185;SDS011;22228;53.222;7.446;2022-09-09T13:17:20;3.73;;;1.40;;
36185;SDS011;22228;53.222;7.446;2022-09-09T13:19:43;5.60;;;1.47;;
36185;SDS011;22228;53.222;7.446;2022-09-09T13:22:12;4.13;;;1.50;;
36185;SDS011;22228;53.222;7.446;2022-09-09T13:24:34;3.47;;;1.00;;
36185;SDS011;22228;53.222;7.446;2022-09-09T13:26:55;6.27;;;1.23;;
36185;SDS011;22228;53.222;7.446;2022-09-09T13:29:17;3.60;;;1.50;;
36185;SDS011;22228;53.222;7.446;2022-09-09T13:31:38;2.47;;;1.20;;
36185;SDS011;22228;53.222;7.446;2022-09-09T13:33:59;5.40;;;1.47;;
36185;SDS011;22228;53.222;7.446;2022-09-09T13:36:31;6.27;;;1.50;;
36185;SDS011;22228;53.222;7.446;2022-09-09T13:38:55;12.47;;;7.70;;
36185;SDS011;22228;53.222;7.446;2022-09-09T13:41:19;5.13;;;2.00;;
36185;SDS011;22228;53.222;7.446;2022-09-09T13:43:43;6.30;;;2.03;;
36185;SDS011;22228;53.222;7.446;2022-09-09T13:48:53;3.80;;;1.60;;
36185;SDS011;22228;53.222;7.446;2022-09-09T13:51:22;3.23;;;1.73;;
36185;SDS011;22228;53.222;7.446;2022-09-09T13:53:50;4.03;;;1.63;;
36185;SDS011;22228;53.222;7.446;2022-09-09T13:56:12;3.17;;;1.20;;
36185;SDS011;22228;53.222;7.446;2022-09-09T13:58:32;6.00;;;1.60;;
36185;SDS011;22228;53.222;7.446;2022-09-09T14:00:53;2.00;;;0.97;;
36185;SDS011;22228;53.222;7.446;2022-09-09T14:03:13;2.37;;;1.00;;
36185;SDS011;22228;53.222;7.446;2022-09-09T14:05:34;4.30;;;1.77;;
36185;SDS011;22228;53.222;7.446;2022-09-09T14:07:55;3.80;;;1.73;;
36185;SDS011;22228;53.222;7.446;2022-09-09T14:10:15;4.33;;;1.87;;
36185;SDS011;22228;53.222;7.446;2022-09-09T14:12:38;3.43;;;1.50;;
36185;SDS011;22228;53.222;7.446;2022-09-09T14:14:58;1.90;;;1.10;;
36185;SDS011;22228;53.222;7.446;2022-09-09T14:17:19;3.20;;;1.10;;
36185;SDS011;22228;53.222;7.446;2022-09-09T14:19:41;4.10;;;1.20;;
36185;SDS011;22228;53.222;7.446;2022-09-09T14:22:01;4.07;;;1.20;;
36185;SDS011;22228;53.222;7.446;2022-09-09T14:24:22;2.30;;;0.93;;
36185;SDS011;22228;53.222;7.446;2022-09-09T14:26:42;4.53;;;1.20;;
36185;SDS011;22228;53.222;7.446;2022-09-09T14:29:04;5.20;;;1.07;;
36185;SDS011;22228;53.222;7.446;2022-09-09T14:31:25;2.13;;;0.80;;